Time;durP1;ratioP1;P1;durP2;ratioP2;P2;SDS_P1;SDS_P2;PMS_P1;PMS_P2;Temp;Humidity;BMP_temperature;BMP_pressure;BME280_temperature;BME280_humidity;BME280_pressure;Samples;Min_cycle;Max_cycle;Signal;HPM_P1;HPM_P2
2021/07/06 00:00:46;;;;;;;;;;;15.70;1.00;;;;;;5049302;28;20033;-62
2021/07/06 00:03:12;;;;;;;;;;;15.70;1.00;;;;;;5048741;28;20011;-63
2021/07/06 00:05:37;;;;;;;;;;;15.70;1.00;;;;;;5049487;28;19995;-62
2021/07/06 00:08:03;;;;;;;;;;;15.70;1.00;;;;;;5048287;28;20412;-62
2021/07/06 00:10:28;;;;;;;;;;;15.60;1.00;;;;;;5048436;28;19917;-62
2021/07/06 00:12:54;;;;;;;;;;;15.60;1.00;;;;;;5049540;28;20012;-62
2021/07/06 00:15:23;;;;;;;;;;;15.60;1.00;;;;;;5049464;28;19913;-64
2021/07/06 00:17:48;;;;;;;;;;;15.60;1.00;;;;;;5049219;28;20398;-62
2021/07/06 00:20:14;;;;;;;;;;;15.60;1.00;;;;;;5049154;28;20015;-62
2021/07/06 00:22:40;;;;;;;;;;;15.60;1.00;;;;;;5048739;28;19920;-62
2021/07/06 00:25:06;;;;;;;;;;;15.50;1.00;;;;;;5037141;28;19909;-62
2021/07/06 00:27:32;;;;;;;;;;;15.50;1.00;;;;;;5028677;28;20030;-62
2021/07/06 00:29:57;;;;;;;;;;;15.60;1.00;;;;;;5029366;28;20317;-61
2021/07/06 00:32:22;;;;;;;;;;;15.50;1.00;;;;;;5028441;28;20024;-62
2021/07/06 00:34:48;;;;;;;;;;;15.50;1.00;;;;;;5029446;28;19910;-63
2021/07/06 00:37:13;;;;;;;;;;;15.40;1.00;;;;;;5027889;28;19914;-62
2021/07/06 00:39:39;;;;;;;;;;;15.40;1.00;;;;;;5028259;28;19909;-62
2021/07/06 00:42:06;;;;;;;;;;;15.30;1.00;;;;;;5028516;28;19964;-62
2021/07/06 00:44:31;;;;;;;;;;;15.30;1.00;;;;;;5029394;28;19909;-63
2021/07/06 00:46:57;;;;;;;;;;;15.30;1.00;;;;;;5028196;28;20188;-62
2021/07/06 00:49:22;;;;;;;;;;;15.20;1.00;;;;;;5028629;28;20018;-62
2021/07/06 00:51:48;;;;;;;;;;;15.20;1.00;;;;;;5028088;28;19914;-61
2021/07/06 00:54:13;;;;;;;;;;;15.20;1.00;;;;;;5028386;28;20035;-63
2021/07/06 00:56:40;;;;;;;;;;;15.20;1.00;;;;;;5028379;28;19909;-62
2021/07/06 00:59:06;;;;;;;;;;;15.20;1.00;;;;;;5036916;28;19916;-62
2021/07/06 01:01:31;;;;;;;;;;;15.20;1.00;;;;;;5079028;22;19924;-62
2021/07/06 01:03:57;;;;;;;;;;;15.10;1.00;;;;;;5067740;28;20000;-59
2021/07/06 01:06:22;;;;;;;;;;;15.10;1.00;;;;;;5068306;28;19908;-62
2021/07/06 01:08:48;;;;;;;;;;;15.10;1.00;;;;;;5067127;28;20262;-62
2021/07/06 01:11:14;;;;;;;;;;;15.10;1.00;;;;;;5067998;28;19928;-62
2021/07/06 01:13:39;;;;;;;;;;;15.10;1.00;;;;;;5068522;28;19916;-62
2021/07/06 01:16:05;;;;;;;;;;;15.10;1.00;;;;;;5068584;28;19913;-62
2021/07/06 01:18:30;;;;;;;;;;;15.10;1.00;;;;;;5067004;28;20110;-61
2021/07/06 01:20:56;;;;;;;;;;;15.00;1.00;;;;;;5068369;28;19912;-62
2021/07/06 01:23:26;;;;;;;;;;;15.00;1.00;;;;;;5063296;28;19923;-62
2021/07/06 01:25:52;;;;;;;;;;;15.00;1.00;;;;;;5048811;28;19988;-62
2021/07/06 01:28:18;;;;;;;;;;;15.00;1.00;;;;;;5047650;28;20328;-61
2021/07/06 01:30:44;;;;;;;;;;;14.90;1.00;;;;;;5048173;28;19935;-62
2021/07/06 01:33:10;;;;;;;;;;;14.90;1.00;;;;;;5047556;28;19912;-62
2021/07/06 01:35:35;;;;;;;;;;;14.90;1.00;;;;;;5048438;28;19912;-62
2021/07/06 01:38:03;;;;;;;;;;;14.80;1.00;;;;;;5046801;28;19908;-62
2021/07/06 01:40:29;;;;;;;;;;;14.80;1.00;;;;;;5047210;28;19909;-62
2021/07/06 01:42:55;;;;;;;;;;;14.70;1.00;;;;;;5047854;28;19992;-62
2021/07/06 01:45:22;;;;;;;;;;;14.70;1.00;;;;;;5047748;28;19909;-62
2021/07/06 01:47:49;;;;;;;;;;;14.70;1.00;;;;;;5047311;28;20269;-62
2021/07/06 01:50:25;;;;;;;;;;;14.60;1.00;;;;;;5047924;28;19915;-62
2021/07/06 01:52:52;;;;;;;;;;;14.60;1.00;;;;;;5047484;28;19928;-62
2021/07/06 01:55:18;;;;;;;;;;;14.60;1.00;;;;;;5047044;28;19909;-62
2021/07/06 01:57:45;;;;;;;;;;;14.60;1.00;;;;;;5047135;28;20046;-62
2021/07/06 02:00:12;;;;;;;;;;;14.60;1.00;;;;;;5066134;28;19919;-60
2021/07/06 02:02:37;;;;;;;;;;;14.60;1.00;;;;;;5067836;28;20322;-59
2021/07/06 02:05:21;;;;;;;;;;;14.60;1.00;;;;;;5069288;28;19959;-61
2021/07/06 02:07:46;;;;;;;;;;;14.50;1.00;;;;;;5067348;28;19962;-61
2021/07/06 02:10:13;;;;;;;;;;;14.60;1.00;;;;;;5067077;28;20025;-61
2021/07/06 02:12:38;;;;;;;;;;;14.60;1.00;;;;;;5067737;28;20384;-61
2021/07/06 02:15:05;;;;;;;;;;;14.60;1.00;;;;;;5069219;28;19995;-60
2021/07/06 02:17:30;;;;;;;;;;;14.50;1.00;;;;;;5070184;28;19916;-60
2021/07/06 02:19:56;;;;;;;;;;;14.50;1.00;;;;;;5071348;28;20356;-60
2021/07/06 02:22:21;;;;;;;;;;;14.50;1.00;;;;;;5070653;28;19970;-59
2021/07/06 02:24:47;;;;;;;;;;;14.50;1.00;;;;;;5070963;28;19912;-60
2021/07/06 02:27:12;;;;;;;;;;;14.50;1.00;;;;;;5070027;28;20189;-60
2021/07/06 02:29:38;;;;;;;;;;;14.40;1.00;;;;;;5071285;28;20031;-61
2021/07/06 02:32:04;;;;;;;;;;;14.40;1.00;;;;;;5070533;28;19967;-61
2021/07/06 02:34:29;;;;;;;;;;;14.40;1.00;;;;;;5072104;28;20030;-61
2021/07/06 02:36:55;;;;;;;;;;;14.50;1.00;;;;;;5071059;28;19913;-62
2021/07/06 02:39:20;;;;;;;;;;;14.50;1.00;;;;;;5069995;28;19909;-60
2021/07/06 02:41:46;;;;;;;;;;;14.50;1.00;;;;;;5070411;28;19909;-61
2021/07/06 02:44:11;;;;;;;;;;;14.60;1.00;;;;;;5071095;28;20003;-62
2021/07/06 02:46:37;;;;;;;;;;;14.60;1.00;;;;;;5071597;28;19908;-61
2021/07/06 02:49:02;;;;;;;;;;;14.60;1.00;;;;;;5061370;28;19908;-61
2021/07/06 02:51:28;;;;;;;;;;;14.60;1.00;;;;;;5070377;28;19948;-61
2021/07/06 02:53:53;;;;;;;;;;;14.60;1.00;;;;;;5070532;28;19908;-61
2021/07/06 02:56:19;;;;;;;;;;;14.60;1.00;;;;;;5070325;28;19977;-61
2021/07/06 02:58:44;;;;;;;;;;;14.60;1.00;;;;;;5070472;28;19912;-61
2021/07/06 03:01:10;;;;;;;;;;;14.60;1.00;;;;;;5070682;28;19943;-61
2021/07/06 03:03:35;;;;;;;;;;;14.60;1.00;;;;;;5070243;28;19950;-60
2021/07/06 03:06:01;;;;;;;;;;;14.60;1.00;;;;;;5070576;28;20003;-61
2021/07/06 03:08:30;;;;;;;;;;;14.60;1.00;;;;;;5069411;28;19994;-61
2021/07/06 03:10:55;;;;;;;;;;;14.50;1.00;;;;;;5069463;28;19921;-61
2021/07/06 03:13:21;;;;;;;;;;;14.60;1.00;;;;;;5070371;28;19908;-59
2021/07/06 03:15:46;;;;;;;;;;;14.50;1.00;;;;;;5070652;28;19947;-62
2021/07/06 03:18:12;;;;;;;;;;;14.40;1.00;;;;;;5069215;28;19912;-61
2021/07/06 03:20:38;;;;;;;;;;;14.40;1.00;;;;;;5070212;28;19935;-59
2021/07/06 03:23:04;;;;;;;;;;;14.40;1.00;;;;;;5069914;28;19908;-59
2021/07/06 03:25:29;;;;;;;;;;;14.40;1.00;;;;;;5069275;28;19909;-61
2021/07/06 03:27:55;;;;;;;;;;;14.40;1.00;;;;;;5068390;28;19909;-61
2021/07/06 03:30:22;;;;;;;;;;;14.40;1.00;;;;;;5070226;28;19971;-59
2021/07/06 03:32:48;;;;;;;;;;;14.40;1.00;;;;;;5069419;28;19924;-60
2021/07/06 03:35:14;;;;;;;;;;;14.40;1.00;;;;;;5070105;28;19908;-61
2021/07/06 03:37:40;;;;;;;;;;;14.40;1.00;;;;;;5068858;28;19998;-61
2021/07/06 03:40:07;;;;;;;;;;;14.40;1.00;;;;;;5069280;28;19913;-62
2021/07/06 03:42:33;;;;;;;;;;;14.40;1.00;;;;;;5069981;28;20340;-62
2021/07/06 03:44:58;;;;;;;;;;;14.40;1.00;;;;;;5070693;28;20000;-62
2021/07/06 03:47:24;;;;;;;;;;;14.50;1.00;;;;;;5068747;28;19913;-60
2021/07/06 03:49:49;;;;;;;;;;;14.60;1.00;;;;;;5069699;28;19915;-60
2021/07/06 03:52:15;;;;;;;;;;;14.80;1.00;;;;;;5068793;28;20007;-62
2021/07/06 03:54:40;;;;;;;;;;;14.90;1.00;;;;;;5069118;28;20007;-62
2021/07/06 03:57:06;;;;;;;;;;;15.10;1.00;;;;;;5069161;28;20016;-60
2021/07/06 03:59:31;;;;;;;;;;;15.30;1.00;;;;;;5068268;28;19908;-61
2021/07/06 04:01:57;;;;;;;;;;;15.50;1.00;;;;;;5068307;28;19932;-62
2021/07/06 04:04:23;;;;;;;;;;;15.70;1.00;;;;;;5069201;28;19931;-61
2021/07/06 04:06:49;;;;;;;;;;;15.80;1.00;;;;;;5069098;28;19973;-61
2021/07/06 04:09:15;;;;;;;;;;;16.00;1.00;;;;;;5068179;28;19916;-60
2021/07/06 04:11:40;;;;;;;;;;;16.30;1.00;;;;;;5068601;28;19917;-61
2021/07/06 04:14:06;;;;;;;;;;;16.50;1.00;;;;;;5069360;28;19913;-60
2021/07/06 04:16:31;;;;;;;;;;;16.90;1.00;;;;;;5069914;28;19909;-59
2021/07/06 04:18:57;;;;;;;;;;;17.20;1.00;;;;;;5065723;28;19909;-62
2021/07/06 04:21:22;;;;;;;;;;;17.50;1.00;;;;;;5064473;28;20384;-60
2021/07/06 04:23:49;;;;;;;;;;;17.80;1.00;;;;;;5052122;28;19928;-61
2021/07/06 04:26:15;;;;;;;;;;;17.90;1.00;;;;;;5068408;28;19916;-61
2021/07/06 04:28:41;;;;;;;;;;;17.80;1.00;;;;;;5068334;28;19908;-61
2021/07/06 04:31:06;;;;;;;;;;;17.90;1.00;;;;;;5062146;28;19959;-61
2021/07/06 04:33:32;;;;;;;;;;;18.30;1.00;;;;;;5057668;28;19951;-61
2021/07/06 04:35:57;;;;;;;;;;;18.90;55.90;;;;;;5065546;28;20381;-62
2021/07/06 04:38:23;;;;;;;;;;;19.40;99.90;;;;;;5049104;28;19913;-61
2021/07/06 04:40:48;;;;;;;;;;;20.00;99.90;;;;;;5049157;28;19908;-61
2021/07/06 04:43:14;;;;;;;;;;;20.50;1.00;;;;;;5065937;28;20396;-62
2021/07/06 04:45:39;;;;;;;;;;;20.90;1.00;;;;;;5062658;28;20480;-62
2021/07/06 04:48:05;;;;;;;;;;;21.40;1.00;;;;;;5053646;28;20042;-62
2021/07/06 04:50:35;;;;;;;;;;;21.70;99.90;;;;;;5055830;28;19984;-64
2021/07/06 04:53:00;;;;;;;;;;;22.10;92.00;;;;;;5055137;28;19916;-62
2021/07/06 04:55:26;;;;;;;;;;;22.50;1.00;;;;;;5057327;28;19908;-60
2021/07/06 04:57:51;;;;;;;;;;;22.80;1.00;;;;;;5045250;28;20871;-64
2021/07/06 05:00:17;;;;;;;;;;;23.30;1.00;;;;;;5065204;28;20386;-62
2021/07/06 05:02:43;;;;;;;;;;;23.60;1.00;;;;;;5065087;28;20047;-62
2021/07/06 05:05:09;;;;;;;;;;;23.90;1.00;;;;;;5065725;28;19984;-63
2021/07/06 05:07:35;;;;;;;;;;;24.00;1.00;;;;;;5061699;28;20476;-63
2021/07/06 05:10:02;;;;;;;;;;;24.40;1.00;;;;;;5065109;28;19924;-63
2021/07/06 05:12:28;;;;;;;;;;;25.00;1.00;;;;;;5064646;28;19912;-60
2021/07/06 05:14:53;;;;;;;;;;;25.50;1.00;;;;;;5065608;28;19912;-60
2021/07/06 05:17:19;;;;;;;;;;;25.60;99.90;;;;;;5063760;28;20004;-59
2021/07/06 05:19:44;;;;;;;;;;;25.80;99.90;;;;;;5065182;28;19915;-59
2021/07/06 05:22:10;;;;;;;;;;;26.00;99.90;;;;;;5064527;28;20261;-63
2021/07/06 05:24:35;;;;;;;;;;;26.00;99.90;;;;;;5064483;28;19956;-63
2021/07/06 05:27:01;;;;;;;;;;;26.00;99.90;;;;;;5053867;28;20327;-69
2021/07/06 05:29:26;;;;;;;;;;;26.40;99.90;;;;;;5048039;28;19908;-61
2021/07/06 05:31:52;;;;;;;;;;;27.10;99.90;;;;;;5064918;28;19912;-60
2021/07/06 05:34:17;;;;;;;;;;;27.70;99.90;;;;;;5046363;28;19937;-62
2021/07/06 05:36:44;;;;;;;;;;;27.90;99.90;;;;;;5044340;28;19919;-61
2021/07/06 05:39:09;;;;;;;;;;;28.20;99.90;;;;;;5043108;28;19963;-63
2021/07/06 05:41:35;;;;;;;;;;;28.60;99.90;;;;;;5045371;28;19913;-61
2021/07/06 05:44:00;;;;;;;;;;;29.10;99.90;;;;;;5045248;28;19915;-61
2021/07/06 05:46:29;;;;;;;;;;;29.80;99.90;;;;;;5055855;28;19908;-61
2021/07/06 05:48:55;;;;;;;;;;;30.20;99.90;;;;;;5055124;28;19995;-63
2021/07/06 05:51:20;;;;;;;;;;;30.20;99.90;;;;;;5067933;28;20019;-63
2021/07/06 05:53:49;;;;;;;;;;;30.80;99.90;;;;;;5067977;28;19936;-62
2021/07/06 05:56:16;;;;;;;;;;;31.50;99.90;;;;;;5069176;28;20271;-63
2021/07/06 05:58:41;;;;;;;;;;;31.60;99.90;;;;;;5068128;28;20037;-60
2021/07/06 06:01:07;;;;;;;;;;;31.50;99.90;;;;;;5068751;28;20362;-61
2021/07/06 06:03:32;;;;;;;;;;;31.70;99.90;;;;;;5068217;28;19931;-62
2021/07/06 06:05:58;;;;;;;;;;;32.10;99.90;;;;;;5068086;28;19909;-62
2021/07/06 06:08:23;;;;;;;;;;;32.10;99.90;;;;;;5067515;28;20353;-61
2021/07/06 06:10:49;;;;;;;;;;;33.00;99.90;;;;;;5068466;28;19909;-61
2021/07/06 06:13:14;;;;;;;;;;;33.50;99.90;;;;;;5068379;28;20361;-62
2021/07/06 06:15:40;;;;;;;;;;;33.90;99.90;;;;;;5068778;28;20320;-62
2021/07/06 06:18:05;;;;;;;;;;;34.30;99.90;;;;;;5067552;28;19938;-62
2021/07/06 06:20:31;;;;;;;;;;;34.20;99.90;;;;;;5068216;28;19919;-62
2021/07/06 06:22:56;;;;;;;;;;;34.80;99.90;;;;;;5068371;28;20077;-62
2021/07/06 06:25:22;;;;;;;;;;;34.60;99.90;;;;;;5070074;28;20019;-62
2021/07/06 06:27:47;;;;;;;;;;;34.10;99.90;;;;;;5070376;28;19993;-62
2021/07/06 06:30:13;;;;;;;;;;;33.90;99.90;;;;;;5071387;28;19920;-61
2021/07/06 06:32:38;;;;;;;;;;;33.00;99.90;;;;;;5070283;28;19924;-61
2021/07/06 06:35:04;;;;;;;;;;;32.10;99.90;;;;;;5070803;28;19909;-62
2021/07/06 06:37:30;;;;;;;;;;;31.40;99.90;;;;;;5068951;28;20291;-61
2021/07/06 06:39:55;;;;;;;;;;;30.80;99.90;;;;;;5070304;28;20420;-61
2021/07/06 06:42:21;;;;;;;;;;;31.10;99.90;;;;;;5069245;28;20219;-62
2021/07/06 06:44:46;;;;;;;;;;;31.30;99.90;;;;;;5071416;28;19908;-62
2021/07/06 06:47:13;;;;;;;;;;;31.70;99.90;;;;;;5070005;28;19974;-61
2021/07/06 06:49:38;;;;;;;;;;;32.40;99.90;;;;;;5070102;28;19995;-62
2021/07/06 06:52:04;;;;;;;;;;;33.00;99.90;;;;;;5070171;28;20023;-62
2021/07/06 06:54:31;;;;;;;;;;;34.20;99.90;;;;;;5070480;28;19908;-62
2021/07/06 06:56:58;;;;;;;;;;;35.10;99.90;;;;;;5070327;28;19908;-61
2021/07/06 06:59:24;;;;;;;;;;;35.40;99.90;;;;;;5070176;28;19989;-60
2021/07/06 07:01:49;;;;;;;;;;;36.00;99.90;;;;;;5070803;28;20003;-62
2021/07/06 07:04:15;;;;;;;;;;;36.90;99.90;;;;;;5070513;28;19958;-61
2021/07/06 07:06:40;;;;;;;;;;;37.60;99.90;;;;;;5070366;28;19916;-61
2021/07/06 07:09:08;;;;;;;;;;;38.10;99.90;;;;;;5069533;28;19909;-61
2021/07/06 07:11:34;;;;;;;;;;;37.80;99.90;;;;;;5069999;28;19912;-63
2021/07/06 07:13:59;;;;;;;;;;;37.90;99.90;;;;;;5070506;28;19909;-63
2021/07/06 07:16:25;;;;;;;;;;;38.50;99.90;;;;;;5070447;28;20005;-62
2021/07/06 07:18:50;;;;;;;;;;;38.20;99.90;;;;;;5068715;28;19969;-61
2021/07/06 07:21:16;;;;;;;;;;;38.50;99.90;;;;;;5070195;28;20421;-62
2021/07/06 07:23:42;;;;;;;;;;;38.70;99.90;;;;;;5062092;28;19917;-62
2021/07/06 07:26:07;;;;;;;;;;;38.80;99.90;;;;;;5050895;28;19954;-61
2021/07/06 07:28:33;;;;;;;;;;;39.40;99.90;;;;;;5049505;28;19908;-61
2021/07/06 07:30:58;;;;;;;;;;;40.20;99.90;;;;;;5050041;28;19912;-61
2021/07/06 07:33:24;;;;;;;;;;;40.30;99.90;;;;;;5049743;28;20372;-61
2021/07/06 07:35:49;;;;;;;;;;;40.00;99.90;;;;;;5050275;28;19971;-61
2021/07/06 07:38:15;;;;;;;;;;;40.30;99.90;;;;;;5048272;28;19919;-62
2021/07/06 07:40:40;;;;;;;;;;;40.90;98.60;;;;;;5049778;28;19916;-62
2021/07/06 07:43:06;;;;;;;;;;;40.60;94.70;;;;;;5050065;28;19940;-62
2021/07/06 07:45:33;;;;;;;;;;;41.00;93.40;;;;;;5050040;28;19942;-61
2021/07/06 07:47:59;;;;;;;;;;;41.10;90.20;;;;;;5049683;28;19987;-62
2021/07/06 07:50:24;;;;;;;;;;;40.60;85.00;;;;;;5049049;28;20347;-58
2021/07/06 07:52:50;;;;;;;;;;;41.00;81.20;;;;;;5050129;28;19919;-63
2021/07/06 07:55:15;;;;;;;;;;;41.00;76.00;;;;;;5050212;28;19913;-62
2021/07/06 07:57:41;;;;;;;;;;;40.50;71.20;;;;;;5049979;28;19944;-59
2021/07/06 08:00:07;;;;;;;;;;;40.20;67.20;;;;;;5067252;28;19908;-62
2021/07/06 08:02:32;;;;;;;;;;;40.80;66.50;;;;;;5068924;28;20003;-62
2021/07/06 08:04:58;;;;;;;;;;;41.00;65.00;;;;;;5069573;28;20317;-61
2021/07/06 08:07:27;;;;;;;;;;;39.10;57.40;;;;;;5066728;28;19921;-60
2021/07/06 08:09:52;;;;;;;;;;;38.30;57.50;;;;;;5049431;28;19923;-63
2021/07/06 08:12:18;;;;;;;;;;;39.80;61.90;;;;;;5048527;28;19999;-61
2021/07/06 08:14:43;;;;;;;;;;;41.90;65.00;;;;;;5050244;28;19912;-63
2021/07/06 08:17:09;;;;;;;;;;;43.70;65.90;;;;;;5049407;28;19932;-63
2021/07/06 08:19:34;;;;;;;;;;;44.70;63.90;;;;;;5058511;28;19920;-61
2021/07/06 08:22:00;;;;;;;;;;;45.40;59.90;;;;;;5068705;28;20064;-63
2021/07/06 08:24:25;;;;;;;;;;;46.00;57.30;;;;;;5069346;28;20003;-62
2021/07/06 08:26:51;;;;;;;;;;;46.90;54.80;;;;;;5068874;28;19919;-62
2021/07/06 08:29:18;;;;;;;;;;;47.30;50.60;;;;;;5068827;28;19908;-63
2021/07/06 08:31:43;;;;;;;;;;;47.50;46.90;;;;;;5068592;28;19924;-63
2021/07/06 08:34:09;;;;;;;;;;;47.90;42.60;;;;;;5069013;28;19908;-61
2021/07/06 08:36:34;;;;;;;;;;;46.70;35.00;;;;;;5069376;28;19963;-62
2021/07/06 08:38:59;;;;;;;;;;;46.60;31.70;;;;;;5067548;28;19966;-63
2021/07/06 08:41:25;;;;;;;;;;;46.00;28.20;;;;;;5069069;28;19961;-62
2021/07/06 08:43:50;;;;;;;;;;;46.20;28.30;;;;;;5069191;28;20320;-62
2021/07/06 08:46:18;;;;;;;;;;;46.10;26.30;;;;;;5069072;28;20114;-61
2021/07/06 08:48:44;;;;;;;;;;;45.20;23.40;;;;;;5059452;28;20333;-61
2021/07/06 08:51:10;;;;;;;;;;;45.20;23.00;;;;;;5069662;28;20328;-60
2021/07/06 08:53:35;;;;;;;;;;;45.40;22.80;;;;;;5068926;28;19952;-62
2021/07/06 08:56:01;;;;;;;;;;;45.60;21.90;;;;;;5068519;28;19963;-61
2021/07/06 08:58:26;;;;;;;;;;;44.50;20.70;;;;;;5068558;28;20391;-61
2021/07/06 09:00:52;;;;;;;;;;;44.10;31.20;;;;;;5068477;28;19909;-61
2021/07/06 09:03:17;;;;;;;;;;;44.40;22.00;;;;;;5068405;28;19966;-61
2021/07/06 09:05:43;;;;;;;;;;;44.90;22.20;;;;;;5069157;28;20297;-62
2021/07/06 09:08:14;;;;;;;;;;;44.30;20.50;;;;;;5067647;28;19929;-62
2021/07/06 09:10:41;;;;;;;;;;;45.00;21.10;;;;;;5068670;28;19908;-61
2021/07/06 09:13:24;;;;;;;;;;;46.60;23.80;;;;;;5069448;28;19953;-62
2021/07/06 09:15:51;;;;;;;;;;;47.90;24.20;;;;;;5069448;28;19908;-60
2021/07/06 09:18:17;;;;;;;;;;;49.00;23.70;;;;;;5068250;28;19908;-62
2021/07/06 09:21:01;;;;;;;;;;;49.90;24.90;;;;;;5069355;28;20227;-62
2021/07/06 09:23:29;;;;;;;;;;;50.60;28.60;;;;;;5068659;28;20045;-62
2021/07/06 09:26:03;;;;;;;;;;;51.10;32.00;;;;;;5071002;28;20418;-62
2021/07/06 09:28:31;;;;;;;;;;;50.50;27.40;;;;;;5072236;28;19908;-62
2021/07/06 09:30:59;;;;;;;;;;;50.50;27.20;;;;;;5072838;28;19913;-62
2021/07/06 09:33:26;;;;;;;;;;;50.50;99.90;;;;;;5087998;28;19912;-62
2021/07/06 09:35:51;;;;;;;;;;;50.70;99.90;;;;;;5073088;28;19916;-62
2021/07/06 09:38:18;;;;;;;;;;;50.70;98.80;;;;;;5071303;28;20229;-61
2021/07/06 09:40:43;;;;;;;;;;;50.80;95.10;;;;;;5072379;28;19912;-61
2021/07/06 09:43:34;;;;;;;;;;;50.90;90.70;;;;;;5072727;28;19916;-61
2021/07/06 09:46:08;;;;;;;;;;;50.60;64.80;;;;;;5070558;28;19924;-62
2021/07/06 09:48:34;;;;;;;;;;;51.00;74.40;;;;;;5071399;28;19908;-62
2021/07/06 09:51:15;;;;;;;;;;;51.30;93.50;;;;;;5072424;28;20011;-61
2021/07/06 09:53:41;;;;;;;;;;;51.80;99.90;;;;;;5071572;28;20022;-61
2021/07/06 09:56:11;;;;;;;;;;;52.40;99.90;;;;;;5071964;28;20017;-62
2021/07/06 09:58:48;;;;;;;;;;;52.10;94.00;;;;;;5071189;28;20007;-61
2021/07/06 10:01:14;;;;;;;;;;;51.10;92.20;;;;;;5071876;28;19917;-62
2021/07/06 10:03:40;;;;;;;;;;;51.60;90.90;;;;;;5071560;28;19915;-61
2021/07/06 10:06:05;;;;;;;;;;;51.80;99.70;;;;;;5072033;28;19912;-62
2021/07/06 10:08:30;;;;;;;;;;;51.70;53.70;;;;;;5070686;28;19960;-61
2021/07/06 10:10:56;;;;;;;;;;;51.60;41.20;;;;;;5071133;28;19999;-62
2021/07/06 10:13:22;;;;;;;;;;;51.70;35.00;;;;;;5071812;28;19936;-62
2021/07/06 10:15:48;;;;;;;;;;;51.60;38.50;;;;;;5071814;28;19909;-61
2021/07/06 10:18:14;;;;;;;;;;;51.80;40.00;;;;;;5070321;28;19952;-61
2021/07/06 10:20:39;;;;;;;;;;;51.80;50.70;;;;;;5071818;28;19962;-61
2021/07/06 10:23:05;;;;;;;;;;;51.90;39.10;;;;;;5069748;28;19927;-62
2021/07/06 10:25:32;;;;;;;;;;;51.80;28.80;;;;;;5052482;28;19909;-62
2021/07/06 10:28:02;;;;;;;;;;;51.40;23.70;;;;;;5050491;28;20183;-61
2021/07/06 10:30:29;;;;;;;;;;;51.10;22.00;;;;;;5051265;28;20418;-61
2021/07/06 10:32:56;;;;;;;;;;;50.60;16.20;;;;;;5051123;28;20372;-61
2021/07/06 10:35:36;;;;;;;;;;;50.30;17.40;;;;;;5050776;28;19959;-61
2021/07/06 10:38:20;;;;;;;;;;;50.70;25.00;;;;;;5049035;28;20023;-61
2021/07/06 10:40:46;;;;;;;;;;;50.10;27.80;;;;;;5050350;28;20267;-60
2021/07/06 10:43:28;;;;;;;;;;;49.80;35.90;;;;;;5050805;28;19920;-62
2021/07/06 10:45:53;;;;;;;;;;;49.50;51.50;;;;;;5051334;28;19916;-62
2021/07/06 10:48:37;;;;;;;;;;;49.40;66.60;;;;;;5050085;28;19909;-62
2021/07/06 10:51:03;;;;;;;;;;;49.20;72.60;;;;;;5051219;28;19932;-62
2021/07/06 10:53:28;;;;;;;;;;;48.90;27.80;;;;;;5050232;28;19909;-60
2021/07/06 10:56:01;;;;;;;;;;;48.60;1.00;;;;;;5050027;28;19908;-62
2021/07/06 10:58:46;;;;;;;;;;;48.50;1.00;;;;;;5053698;28;20309;-62
2021/07/06 11:01:31;;;;;;;;;;;48.30;1.00;;;;;;5070900;28;19942;-62
2021/07/06 11:03:57;;;;;;;;;;;46.50;1.00;;;;;;5070302;28;20326;-62
2021/07/06 11:06:49;;;;;;;;;;;44.50;1.00;;;;;;5071332;28;19999;-62
2021/07/06 11:09:29;;;;;;;;;;;43.10;1.00;;;;;;5067859;28;20004;-61
2021/07/06 11:12:13;;;;;;;;;;;42.40;1.00;;;;;;5070603;28;19974;-62
2021/07/06 11:14:45;;;;;;;;;;;42.60;1.00;;;;;;5071128;28;20327;-62
2021/07/06 11:17:11;;;;;;;;;;;42.90;1.00;;;;;;5070279;28;19912;-62
2021/07/06 11:19:44;;;;;;;;;;;43.40;1.00;;;;;;5070430;28;19920;-62
2021/07/06 11:22:10;;;;;;;;;;;43.80;1.00;;;;;;5069890;28;19913;-61
2021/07/06 11:24:40;;;;;;;;;;;43.90;1.00;;;;;;5070081;28;20003;-62
2021/07/06 11:27:06;;;;;;;;;;;43.30;1.00;;;;;;5070017;28;19980;-62
2021/07/06 11:29:32;;;;;;;;;;;;;;;;;;5070093;28;19979;-62
2021/07/06 11:32:05;;;;;;;;;;;41.60;1.00;;;;;;5069749;28;20026;-62
2021/07/06 11:34:34;;;;;;;;;;;40.80;1.00;;;;;;5069096;28;19988;-62
2021/07/06 11:37:02;;;;;;;;;;;40.00;1.00;;;;;;5068968;28;20029;-61
2021/07/06 11:39:28;;;;;;;;;;;39.70;1.00;;;;;;5060805;28;20016;-62
2021/07/06 11:41:53;;;;;;;;;;;39.50;1.00;;;;;;5049405;28;20012;-61
2021/07/06 11:44:19;;;;;;;;;;;;;;;;;;5050157;28;19988;-63
2021/07/06 11:46:45;;;;;;;;;;;38.20;1.00;;;;;;5062990;28;20187;-61
2021/07/06 11:49:10;;;;;;;;;;;;;;;;;;5059829;28;20022;-61
2021/07/06 11:51:42;;;;;;;;;;;36.50;1.90;;;;;;5069163;28;19988;-61
2021/07/06 11:54:08;;;;;;;;;;;36.00;14.30;;;;;;5069224;28;19991;-61
2021/07/06 11:56:36;;;;;;;;;;;;;;;;;;5069602;28;20399;-61
2021/07/06 11:59:07;;;;;;;;;;;34.90;9.90;;;;;;5069280;28;20285;-61
2021/07/06 12:01:33;;;;;;;;;;;34.40;21.80;;;;;;5070129;28;19916;-61
2021/07/06 12:03:59;;;;;;;;;;;34.00;24.70;;;;;;5069383;28;19919;-62
2021/07/06 12:06:28;;;;;;;;;;;33.80;27.40;;;;;;5069481;28;19936;-62
2021/07/06 12:08:54;;;;;;;;;;;33.60;29.50;;;;;;5068654;28;19920;-60
2021/07/06 12:11:23;;;;;;;;;;;33.40;33.00;;;;;;5069302;28;20357;-61
2021/07/06 12:13:56;;;;;;;;;;;33.10;35.90;;;;;;5070037;28;19992;-61
2021/07/06 12:16:27;;;;;;;;;;;32.60;39.30;;;;;;5069406;28;19913;-62
2021/07/06 12:19:11;;;;;;;;;;;32.20;43.70;;;;;;5068223;28;19912;-62
2021/07/06 12:21:36;;;;;;;;;;;32.00;47.50;;;;;;5069334;28;19957;-62
2021/07/06 12:24:07;;;;;;;;;;;31.80;52.10;;;;;;5069103;28;20334;-62
2021/07/06 12:26:35;;;;;;;;;;;31.70;55.10;;;;;;5069035;28;19927;-62
2021/07/06 12:29:01;;;;;;;;;;;31.50;58.90;;;;;;5069067;28;19913;-63
2021/07/06 12:31:30;;;;;;;;;;;31.60;62.60;;;;;;5069203;28;20388;-62
2021/07/06 12:34:09;;;;;;;;;;;31.70;84.50;;;;;;5069133;28;19912;-61
2021/07/06 12:36:54;;;;;;;;;;;31.70;67.00;;;;;;5065562;28;19916;-62
2021/07/06 12:39:26;;;;;;;;;;;31.70;69.80;;;;;;5068069;28;19920;-63
2021/07/06 12:42:04;;;;;;;;;;;31.90;72.60;;;;;;5068430;28;20007;-62
2021/07/06 12:44:31;;;;;;;;;;;32.00;74.90;;;;;;5069073;28;19917;-60
2021/07/06 12:47:12;;;;;;;;;;;31.90;76.50;;;;;;5068562;28;19912;-61
2021/07/06 12:49:38;;;;;;;;;;;31.90;78.60;;;;;;5069573;28;19930;-62
2021/07/06 12:52:06;;;;;;;;;;;32.10;81.80;;;;;;5068856;28;19908;-63
2021/07/06 12:54:35;;;;;;;;;;;32.20;80.70;;;;;;5069130;28;19984;-62
2021/07/06 12:57:02;;;;;;;;;;;32.00;81.00;;;;;;5068719;28;20003;-62
2021/07/06 12:59:29;;;;;;;;;;;31.90;81.80;;;;;;5069758;28;20230;-61
2021/07/06 13:01:56;;;;;;;;;;;32.00;84.90;;;;;;5069407;28;19932;-62
2021/07/06 13:04:22;;;;;;;;;;;32.10;86.20;;;;;;5068810;28;19912;-62
2021/07/06 13:06:50;;;;;;;;;;;32.10;87.60;;;;;;5068975;28;20571;-63
2021/07/06 13:09:26;;;;;;;;;;;32.10;86.80;;;;;;5068178;28;20299;-62
2021/07/06 13:11:52;;;;;;;;;;;32.20;88.70;;;;;;5068389;28;19920;-61
2021/07/06 13:14:18;;;;;;;;;;;31.90;88.50;;;;;;5069304;28;20353;-63
2021/07/06 13:16:43;;;;;;;;;;;31.60;89.70;;;;;;5068744;28;20095;-63
2021/07/06 13:19:19;;;;;;;;;;;31.50;90.30;;;;;;5066989;28;20407;-62
2021/07/06 13:21:45;;;;;;;;;;;31.00;90.40;;;;;;5068095;28;19924;-62
2021/07/06 13:24:10;;;;;;;;;;;30.90;90.90;;;;;;5057465;28;20251;-60
2021/07/06 13:26:36;;;;;;;;;;;31.00;91.30;;;;;;5047714;28;19974;-64
2021/07/06 13:29:02;;;;;;;;;;;31.00;91.40;;;;;;5048232;28;19974;-62
2021/07/06 13:31:29;;;;;;;;;;;31.10;92.80;;;;;;5048316;28;20231;-63
2021/07/06 13:33:55;;;;;;;;;;;31.00;92.00;;;;;;5048114;28;19912;-62
2021/07/06 13:36:20;;;;;;;;;;;30.60;92.50;;;;;;5048951;28;20397;-62
2021/07/06 13:38:46;;;;;;;;;;;30.30;92.90;;;;;;5047133;28;19935;-63
2021/07/06 13:41:11;;;;;;;;;;;30.00;93.20;;;;;;5048407;28;19929;-62
2021/07/06 13:43:37;;;;;;;;;;;29.90;94.60;;;;;;5047211;28;19916;-62
2021/07/06 13:46:03;;;;;;;;;;;30.10;95.70;;;;;;5049257;28;20015;-61
2021/07/06 13:48:29;;;;;;;;;;;30.40;97.60;;;;;;5046982;28;20276;-62
2021/07/06 13:50:55;;;;;;;;;;;30.50;97.60;;;;;;5046120;28;20024;-63
2021/07/06 13:53:20;;;;;;;;;;;30.60;98.10;;;;;;5047402;28;20336;-62
2021/07/06 13:55:46;;;;;;;;;;;30.50;98.00;;;;;;5047289;28;19909;-62
2021/07/06 13:58:12;;;;;;;;;;;30.50;98.70;;;;;;5049311;28;19985;-63
2021/07/06 14:00:38;;;;;;;;;;;30.40;99.90;;;;;;5068108;28;20362;-62
2021/07/06 14:03:08;;;;;;;;;;;30.10;99.90;;;;;;5067061;28;20407;-62
2021/07/06 14:05:34;;;;;;;;;;;29.90;99.90;;;;;;5067881;28;19996;-64
2021/07/06 14:07:59;;;;;;;;;;;29.60;99.90;;;;;;5066592;28;20181;-61
2021/07/06 14:10:25;;;;;;;;;;;29.10;99.90;;;;;;5067085;28;19920;-63
2021/07/06 14:12:51;;;;;;;;;;;28.60;99.90;;;;;;5069648;28;19916;-63
2021/07/06 14:15:17;;;;;;;;;;;28.30;99.90;;;;;;5071558;28;19988;-60
2021/07/06 14:17:42;;;;;;;;;;;28.10;99.90;;;;;;5069954;28;19989;-62
2021/07/06 14:20:09;;;;;;;;;;;27.90;99.90;;;;;;5071669;28;20357;-62
2021/07/06 14:22:34;;;;;;;;;;;27.70;99.90;;;;;;5070557;28;19931;-62